Terminal Aerodrome Forecast
Issued by NWS Quad Cities IA IL

Home | Current Version | Previous Version | Text Only | Print | Product List | Glossary On
Versions: 1 2 3 4 5 6 7 8 9 10 11 12 13 14 15 16 17 18 19 20 21 22 23 24 25 26 27 28 29 30 31 32 33 34 35 36
614
FTUS43 KDVN 240025 AAA
TAFDBQ
TAF AMD
KDBQ 240025Z 2400/2424 05006KT P6SM SCT012 BKN050
     FM240500 09008KT 5SM BR OVC015
     FM240900 11006KT 1SM BR OVC008
     FM241500 12009KT 4SM BR BKN012=

USA.gov is the U.S. government's official web portal to all federal, state and local government web resources and services.